createdAt,value
2018-09-22T00:00:22.555Z,78.50
2018-09-22T00:02:53.082Z,77.15
2018-09-22T00:05:23.579Z,77.24
2018-09-22T00:07:53.857Z,76.49
2018-09-22T00:10:24.493Z,75.57
2018-09-22T00:12:54.827Z,74.51
2018-09-22T00:15:25.361Z,73.42
2018-09-22T00:17:58.573Z,72.57
2018-09-22T00:20:29.122Z,73.42
2018-09-22T00:22:59.625Z,74.65
2018-09-22T00:25:29.848Z,75.39
2018-09-22T00:28:00.400Z,75.78
2018-09-22T00:30:31.242Z,76.74
2018-09-22T00:33:01.769Z,76.82
2018-09-22T00:35:32.072Z,77.47
2018-09-22T00:38:02.366Z,77.84
2018-09-22T00:40:32.948Z,78.87
2018-09-22T00:43:03.504Z,78.81
2018-09-22T00:45:33.991Z,78.94
2018-09-22T00:48:04.268Z,77.40
2018-09-22T00:50:34.775Z,76.95
2018-09-22T00:53:05.324Z,77.31
2018-09-22T00:55:35.851Z,78.42
2018-09-22T00:58:06.511Z,80.17
2018-09-22T01:00:37.083Z,80.39
2018-09-22T01:03:07.551Z,81.53
2018-09-22T01:05:38.109Z,81.98
2018-09-22T01:08:08.625Z,81.99
2018-09-22T01:10:39.491Z,84.34
2018-09-22T01:13:10.688Z,83.48
2018-09-22T01:15:41.247Z,82.20
2018-09-22T01:18:11.915Z,80.29
2018-09-22T01:20:42.528Z,79.57
2018-09-22T01:23:12.788Z,80.33
2018-09-22T01:25:45.024Z,81.31
2018-09-22T01:28:15.858Z,83.01
2018-09-22T01:30:46.679Z,82.09
2018-09-22T01:33:17.172Z,80.79
2018-09-22T01:35:47.731Z,80.77
2018-09-22T01:38:17.932Z,80.53
2018-09-22T01:40:48.443Z,80.96
2018-09-22T01:43:19.870Z,79.68
2018-09-22T01:45:50.472Z,78.64
2018-09-22T01:48:20.851Z,78.47
2018-09-22T01:50:51.847Z,79.21
2018-09-22T01:53:22.159Z,78.71
2018-09-22T01:55:52.677Z,78.20
2018-09-22T01:58:23.269Z,78.26
2018-09-22T02:00:53.752Z,77.39
2018-09-22T02:03:24.608Z,78.28
2018-09-22T02:05:55.166Z,78.09
2018-09-22T02:08:25.722Z,78.46
2018-09-22T02:10:56.281Z,79.62
2018-09-22T02:13:26.888Z,79.75
2018-09-22T02:15:57.692Z,79.80
2018-09-22T02:18:28.925Z,79.74
2018-09-22T02:21:01.585Z,78.72
2018-09-22T02:23:32.084Z,78.47
2018-09-22T02:26:02.618Z,78.02
2018-09-22T02:28:33.176Z,77.82
2018-09-22T02:31:03.681Z,77.51
2018-09-22T02:33:34.201Z,77.20
2018-09-22T02:36:05.019Z,77.28
2018-09-22T02:38:35.715Z,76.57
2018-09-22T02:41:06.545Z,76.83
2018-09-22T02:43:37.069Z,76.08
2018-09-22T02:46:07.619Z,75.23
2018-09-22T02:48:37.849Z,75.77
2018-09-22T02:51:08.359Z,75.57
2018-09-22T02:53:39.461Z,75.23
2018-09-22T02:56:09.952Z,74.29
2018-09-22T02:58:40.191Z,73.37
2018-09-22T03:01:10.792Z,73.14
2018-09-22T03:03:42.852Z,70.90
2018-09-22T03:06:13.443Z,70.72
2018-09-22T03:08:44.010Z,71.12
2018-09-22T03:11:14.928Z,70.79
2018-09-22T03:13:45.505Z,71.07
2018-09-22T03:16:16.268Z,71.02
2018-09-22T03:18:46.622Z,71.24
2018-09-22T03:21:17.188Z,70.14
2018-09-22T03:23:47.676Z,69.90
2018-09-22T03:26:18.172Z,69.98
2018-09-22T03:28:49.036Z,68.84
2018-09-22T03:31:19.979Z,69.15
2018-09-22T03:33:50.690Z,70.80
2018-09-22T03:36:21.229Z,71.00
2018-09-22T03:38:51.764Z,68.76
2018-09-22T03:41:22.040Z,69.64
2018-09-22T03:43:52.529Z,69.63
2018-09-22T03:46:23.104Z,70.05
2018-09-22T03:48:53.641Z,70.82
2018-09-22T03:51:24.220Z,71.03
2018-09-22T03:53:55.509Z,72.09
2018-09-22T03:56:26.128Z,73.35
2018-09-22T03:58:56.693Z,75.72
2018-09-22T04:01:27.223Z,76.73
2018-09-22T04:03:57.464Z,76.05
2018-09-22T04:06:27.693Z,76.99
2018-09-22T04:08:57.962Z,77.99
2018-09-22T04:11:28.443Z,79.47
2018-09-22T04:13:59.234Z,79.34
2018-09-22T04:16:29.780Z,80.76
2018-09-22T04:19:00.932Z,81.09
2018-09-22T04:21:32.089Z,81.43
2018-09-22T04:24:13.139Z,81.03
2018-09-22T04:26:44.002Z,81.23
2018-09-22T04:29:14.497Z,81.19
2018-09-22T04:31:45.056Z,80.14
2018-09-22T04:34:15.941Z,81.20
2018-09-22T04:36:46.221Z,81.48
2018-09-22T04:39:16.864Z,78.92
2018-09-22T04:41:48.257Z,78.93
2018-09-22T04:44:18.485Z,78.70
2018-09-22T04:46:48.999Z,78.90
2018-09-22T04:49:19.673Z,79.51
2018-09-22T04:51:50.151Z,79.72
2018-09-22T04:54:20.384Z,78.94
2018-09-22T04:56:50.885Z,78.60
2018-09-22T04:59:21.667Z,79.25
2018-09-22T05:01:52.800Z,80.90
2018-09-22T05:04:23.513Z,81.28
2018-09-22T05:06:54.172Z,81.90
2018-09-22T05:09:24.680Z,80.51
2018-09-22T05:11:55.381Z,81.31
2018-09-22T05:14:26.208Z,81.19
2018-09-22T05:16:56.756Z,80.00
2018-09-22T05:19:28.042Z,80.03
2018-09-22T05:21:58.536Z,79.01
2018-09-22T05:24:29.016Z,78.78
2018-09-22T05:26:59.753Z,79.40
2018-09-22T05:29:30.803Z,80.31
2018-09-22T05:32:01.507Z,81.11
2018-09-22T05:34:31.760Z,82.18
2018-09-22T05:37:02.417Z,82.69
2018-09-22T05:39:32.943Z,81.72
2018-09-22T05:42:03.496Z,82.05
2018-09-22T05:44:34.836Z,82.66
2018-09-22T05:47:05.961Z,81.67
2018-09-22T05:49:37.524Z,81.90
2018-09-22T05:52:07.972Z,82.28
2018-09-22T05:54:38.696Z,81.75
2018-09-22T05:57:08.911Z,81.68
2018-09-22T05:59:39.623Z,81.81
2018-09-22T06:02:10.157Z,80.80
2018-09-22T06:04:40.410Z,80.59
2018-09-22T06:07:10.891Z,80.68
2018-09-22T06:09:41.162Z,80.38
2018-09-22T06:12:11.832Z,80.48
2018-09-22T06:14:42.131Z,78.91
2018-09-22T06:17:13.036Z,78.94
2018-09-22T06:19:43.596Z,79.53
2018-09-22T06:22:15.363Z,79.74
2018-09-22T06:24:45.856Z,79.31
2018-09-22T06:27:17.290Z,79.12
2018-09-22T06:29:47.840Z,79.04
2018-09-22T06:32:18.344Z,79.09
2018-09-22T06:34:48.875Z,78.95
2018-09-22T06:37:19.633Z,78.34
2018-09-22T06:39:50.156Z,77.76
2018-09-22T06:42:21.511Z,77.70
2018-09-22T06:44:52.012Z,77.28
2018-09-22T06:47:22.528Z,77.63
2018-09-22T06:49:53.550Z,77.00
2018-09-22T06:52:24.432Z,76.55
2018-09-22T06:54:54.962Z,77.48
2018-09-22T06:57:26.726Z,76.51
2018-09-22T06:59:57.211Z,75.64
2018-09-22T07:02:27.440Z,75.36
2018-09-22T07:04:57.662Z,75.28
2018-09-22T07:07:28.163Z,74.40
2018-09-22T07:09:58.668Z,75.21
2018-09-22T07:12:29.521Z,74.33
2018-09-22T07:14:59.743Z,74.33
2018-09-22T07:17:29.960Z,74.40
2018-09-22T07:20:00.504Z,74.64
2018-09-22T07:22:36.185Z,73.69
2018-09-22T07:25:08.766Z,73.74
2018-09-22T07:27:39.251Z,73.92
2018-09-22T07:30:09.851Z,72.80
2018-09-22T07:32:40.738Z,72.01
2018-09-22T07:35:11.416Z,73.27
2018-09-22T07:37:41.949Z,72.52
2018-09-22T07:40:12.493Z,72.50
2018-09-22T07:42:42.974Z,71.95
2018-09-22T07:45:13.473Z,71.96
2018-09-22T07:47:43.936Z,72.01
2018-09-22T07:50:14.177Z,71.93
2018-09-22T07:52:44.701Z,72.08
2018-09-22T07:55:15.270Z,71.88
2018-09-22T07:57:45.831Z,71.75
2018-09-22T08:00:16.427Z,71.24
2018-09-22T08:02:46.786Z,71.09
2018-09-22T08:05:17.251Z,71.21
2018-09-22T08:07:48.781Z,70.39
2018-09-22T08:10:20.337Z,70.60
2018-09-22T08:12:53.552Z,70.26
2018-09-22T08:15:25.942Z,69.99
2018-09-22T08:17:56.155Z,69.40
2018-09-22T08:20:26.708Z,69.01
2018-09-22T08:22:57.311Z,69.86
2018-09-22T08:25:27.881Z,69.54
2018-09-22T08:28:00.119Z,69.36
2018-09-22T08:30:30.764Z,70.12
2018-09-22T08:33:01.016Z,69.62
2018-09-22T08:35:31.819Z,69.63
2018-09-22T08:38:02.052Z,69.98
2018-09-22T08:40:32.760Z,69.54
2018-09-22T08:43:03.264Z,69.89
2018-09-22T08:45:33.655Z,70.23
2018-09-22T08:48:04.175Z,70.24
2018-09-22T08:50:35.579Z,69.57
2018-09-22T08:53:06.389Z,69.69
2018-09-22T08:55:36.904Z,68.76
2018-09-22T08:58:07.452Z,69.10
2018-09-22T09:00:38.008Z,68.65
2018-09-22T09:03:08.316Z,68.37
2018-09-22T09:05:38.752Z,67.73
2018-09-22T09:08:09.265Z,67.34
2018-09-22T09:10:39.887Z,65.82
2018-09-22T09:13:12.748Z,65.41
2018-09-22T09:15:43.384Z,65.51
2018-09-22T09:18:14.510Z,65.02
2018-09-22T09:20:44.836Z,64.49
2018-09-22T09:23:15.384Z,63.86
2018-09-22T09:25:45.819Z,64.10
2018-09-22T09:28:16.327Z,63.32
2018-09-22T09:30:46.888Z,62.92
2018-09-22T09:33:17.386Z,62.71
2018-09-22T09:35:47.603Z,60.45
2018-09-22T09:38:18.499Z,60.84
2018-09-22T09:40:49.278Z,61.30
2018-09-22T09:43:20.555Z,60.24
2018-09-22T09:45:50.923Z,58.97
2018-09-22T09:48:21.412Z,58.50
2018-09-22T09:50:52.045Z,57.85
2018-09-22T09:53:22.358Z,56.35
2018-09-22T09:55:52.545Z,57.02
2018-09-22T09:58:23.033Z,56.61
2018-09-22T10:00:53.584Z,56.05
2018-09-22T10:03:24.123Z,54.32
2018-09-22T10:05:55.279Z,54.93
2018-09-22T10:08:25.480Z,55.28
2018-09-22T10:10:55.816Z,53.61
2018-09-22T10:13:26.322Z,54.13
2018-09-22T10:15:56.905Z,53.73
2018-09-22T10:18:27.294Z,52.99
2018-09-22T10:20:58.087Z,53.13
2018-09-22T10:23:28.576Z,52.20
2018-09-22T10:25:59.067Z,51.89
2018-09-22T10:28:29.375Z,51.78
2018-09-22T10:30:59.853Z,51.09
2018-09-22T10:33:30.346Z,51.55
2018-09-22T10:36:00.872Z,51.17
2018-09-22T10:38:31.370Z,51.65
2018-09-22T10:41:01.577Z,51.69
2018-09-22T10:43:32.068Z,51.49
2018-09-22T10:46:02.668Z,51.61
2018-09-22T10:48:33.281Z,51.51
2018-09-22T10:51:03.792Z,51.90
2018-09-22T10:53:34.295Z,51.31
2018-09-22T10:56:04.490Z,51.38
2018-09-22T10:58:35.099Z,51.57
2018-09-22T11:01:05.924Z,51.35
2018-09-22T11:03:36.764Z,50.29
2018-09-22T11:06:07.704Z,51.07
2018-09-22T11:08:38.332Z,51.45
2018-09-22T11:11:10.833Z,49.37
2018-09-22T11:13:41.323Z,49.64
2018-09-22T11:16:11.831Z,49.48
2018-09-22T11:18:42.313Z,50.95
2018-09-22T11:21:12.947Z,51.63
2018-09-22T11:23:43.466Z,50.80
2018-09-22T11:26:13.985Z,51.23
2018-09-22T11:28:44.578Z,50.43
2018-09-22T11:31:15.148Z,49.88
2018-09-22T11:33:45.712Z,48.97
2018-09-22T11:36:16.211Z,48.98
2018-09-22T11:38:47.027Z,49.24
2018-09-22T11:41:17.490Z,50.02
2018-09-22T11:43:47.972Z,50.93
2018-09-22T11:46:18.623Z,49.98
2018-09-22T11:48:49.309Z,48.12
2018-09-22T11:51:19.512Z,48.45
2018-09-22T11:53:49.991Z,47.60
2018-09-22T11:56:20.509Z,47.79
2018-09-22T11:58:50.911Z,48.22
2018-09-22T12:01:21.401Z,48.72
2018-09-22T12:03:51.883Z,48.43
2018-09-22T12:06:22.181Z,48.96
2018-09-22T12:08:52.709Z,47.92
2018-09-22T12:11:23.318Z,46.01
2018-09-22T12:14:00.136Z,47.01
2018-09-22T12:16:30.740Z,46.21
2018-09-22T12:19:01.435Z,46.64
2018-09-22T12:21:31.816Z,45.37
2018-09-22T12:24:02.037Z,46.55
2018-09-22T12:26:32.236Z,46.48
2018-09-22T12:29:02.504Z,46.32
2018-09-22T12:31:32.762Z,45.61
2018-09-22T12:34:03.843Z,44.94
2018-09-22T12:36:34.393Z,45.13
2018-09-22T12:39:08.020Z,43.94
2018-09-22T12:41:39.075Z,44.28
2018-09-22T12:44:09.646Z,45.09
2018-09-22T12:46:40.178Z,45.51
2018-09-22T12:49:12.718Z,44.37
2018-09-22T12:51:43.189Z,43.67
2018-09-22T12:54:14.404Z,44.49
2018-09-22T12:56:44.894Z,44.54
2018-09-22T12:59:15.133Z,43.80
2018-09-22T13:01:45.609Z,43.80
2018-09-22T13:04:16.101Z,44.44
2018-09-22T13:06:46.593Z,44.95
2018-09-22T13:09:16.820Z,43.55
2018-09-22T13:11:47.315Z,42.26
2018-09-22T13:14:17.884Z,42.49
2018-09-22T13:16:48.444Z,41.89
2018-09-22T13:19:19.740Z,40.96
2018-09-22T13:21:50.358Z,41.97
2018-09-22T13:24:20.919Z,41.67
2018-09-22T13:26:52.249Z,42.25
2018-09-22T13:29:22.901Z,41.47
2018-09-22T13:31:53.575Z,41.74
2018-09-22T13:34:24.027Z,42.11
2018-09-22T13:36:54.584Z,41.51
2018-09-22T13:39:25.056Z,41.54
2018-09-22T13:41:55.564Z,40.74
2018-09-22T13:44:26.059Z,41.18
2018-09-22T13:46:56.559Z,41.21
2018-09-22T13:49:27.060Z,40.73
2018-09-22T13:51:57.563Z,41.11
2018-09-22T13:54:28.312Z,41.04
2018-09-22T13:56:58.520Z,40.53
2018-09-22T13:59:29.025Z,40.95
2018-09-22T14:01:59.220Z,41.32
2018-09-22T14:04:29.429Z,41.41
2018-09-22T14:06:59.644Z,41.50
2018-09-22T14:09:29.944Z,41.67
2018-09-22T14:12:00.212Z,42.88
2018-09-22T14:14:30.396Z,42.13
2018-09-22T14:17:00.932Z,41.36
2018-09-22T14:19:31.186Z,42.21
2018-09-22T14:22:02.464Z,42.51
2018-09-22T14:24:33.028Z,42.42
2018-09-22T14:27:03.645Z,42.86
2018-09-22T14:29:34.301Z,43.11
2018-09-22T14:32:05.218Z,43.81
2018-09-22T14:34:35.645Z,43.45
2018-09-22T14:37:06.223Z,43.35
2018-09-22T14:39:36.753Z,43.12
2018-09-22T14:42:07.237Z,43.77
2018-09-22T14:44:37.767Z,43.73
2018-09-22T14:47:08.272Z,43.16
2018-09-22T14:49:38.784Z,43.49
2018-09-22T14:52:09.375Z,43.03
2018-09-22T14:54:39.604Z,43.65
2018-09-22T14:57:10.099Z,42.87
2018-09-22T14:59:40.655Z,43.05
2018-09-22T15:02:10.876Z,44.02
2018-09-22T15:04:41.113Z,43.27
2018-09-22T15:07:11.594Z,42.39
2018-09-22T15:09:42.128Z,43.50
2018-09-22T15:12:12.357Z,43.22
2018-09-22T15:14:43.108Z,43.20
2018-09-22T15:17:13.803Z,43.17
2018-09-22T15:19:45.180Z,44.30
2018-09-22T15:22:15.878Z,44.11
2018-09-22T15:24:46.462Z,43.50
2018-09-22T15:27:17.155Z,44.02
2018-09-22T15:29:47.952Z,44.13
2018-09-22T15:32:18.225Z,43.92
2018-09-22T15:34:48.723Z,44.47
2018-09-22T15:37:19.188Z,44.53
2018-09-22T15:39:49.562Z,45.55
2018-09-22T15:42:19.763Z,44.59
2018-09-22T15:44:50.473Z,44.78
2018-09-22T15:47:20.942Z,45.94
2018-09-22T15:49:51.643Z,46.45
2018-09-22T15:52:22.217Z,45.50
2018-09-22T15:54:52.573Z,45.10
2018-09-22T15:57:23.169Z,46.17
2018-09-22T15:59:53.487Z,46.64
2018-09-22T16:02:23.818Z,45.89
2018-09-22T16:04:54.204Z,45.63
2018-09-22T16:07:24.944Z,45.96
2018-09-22T16:09:55.406Z,45.31
2018-09-22T16:12:25.929Z,46.16
2018-09-22T16:14:56.162Z,46.40
2018-09-22T16:17:26.386Z,44.88
2018-09-22T16:19:56.696Z,45.52
2018-09-22T16:22:27.810Z,45.63
2018-09-22T16:24:58.922Z,45.60
2018-09-22T16:27:29.100Z,45.89
2018-09-22T16:30:01.013Z,46.55
2018-09-22T16:32:31.863Z,46.39
2018-09-22T16:35:02.450Z,46.97
2018-09-22T16:37:32.902Z,47.48
2018-09-22T16:40:08.798Z,45.81
2018-09-22T16:42:39.318Z,45.06
2018-09-22T16:45:10.051Z,43.98
2018-09-22T16:47:41.174Z,43.53
2018-09-22T16:50:12.263Z,44.98
2018-09-22T16:52:43.451Z,45.10
2018-09-22T16:55:13.980Z,46.05
2018-09-22T16:57:44.493Z,45.97
2018-09-22T17:00:14.996Z,46.96
2018-09-22T17:02:45.600Z,46.92
2018-09-22T17:05:16.464Z,48.20
2018-09-22T17:07:46.673Z,48.98
2018-09-22T17:10:16.851Z,48.77
2018-09-22T17:12:47.374Z,49.51
2018-09-22T17:15:17.873Z,49.23
2018-09-22T17:17:48.903Z,49.84
2018-09-22T17:20:19.403Z,50.24
2018-09-22T17:22:49.856Z,50.04
2018-09-22T17:25:20.107Z,49.79
2018-09-22T17:27:53.315Z,49.99
2018-09-22T17:30:23.904Z,49.78
2018-09-22T17:32:54.352Z,50.92
2018-09-22T17:35:25.024Z,51.42
2018-09-22T17:37:55.275Z,52.01
2018-09-22T17:40:26.312Z,51.91
2018-09-22T17:43:07.700Z,52.28
2018-09-22T17:45:39.856Z,52.36
2018-09-22T17:48:10.479Z,52.56
2018-09-22T17:50:40.762Z,52.66
2018-09-22T17:53:13.266Z,53.96
2018-09-22T17:55:44.025Z,54.88
2018-09-22T17:58:14.523Z,54.40
2018-09-22T18:00:44.744Z,54.68
2018-09-22T18:03:15.268Z,53.85
2018-09-22T18:05:45.520Z,53.63
2018-09-22T18:08:16.021Z,54.42
2018-09-22T18:10:46.527Z,54.76
2018-09-22T18:13:17.344Z,54.52
2018-09-22T18:15:47.853Z,55.10
2018-09-22T18:18:18.200Z,55.65
2018-09-22T18:20:48.688Z,55.02
2018-09-22T18:23:19.218Z,55.68
2018-09-22T18:25:49.431Z,56.71
2018-09-22T18:28:19.673Z,56.08
2018-09-22T18:30:50.201Z,55.44
2018-09-22T18:33:20.419Z,55.32
2018-09-22T18:35:50.929Z,54.15
2018-09-22T18:38:21.155Z,54.97
2018-09-22T18:40:51.753Z,54.17
2018-09-22T18:43:22.406Z,53.90
2018-09-22T18:45:53.252Z,53.37
2018-09-22T18:48:24.500Z,52.99
2018-09-22T18:50:55.125Z,53.06
2018-09-22T18:53:25.608Z,52.71
2018-09-22T18:55:56.186Z,52.23
2018-09-22T18:58:26.924Z,54.00
2018-09-22T19:00:57.588Z,51.94
2018-09-22T19:03:27.774Z,49.90
2018-09-22T19:05:58.439Z,48.58
2018-09-22T19:08:29.481Z,48.33
2018-09-22T19:10:59.814Z,47.11
2018-09-22T19:13:33.664Z,49.76
2018-09-22T19:16:08.880Z,48.33
2018-09-22T19:18:46.159Z,47.06
2018-09-22T19:21:22.523Z,48.02
2018-09-22T19:23:57.661Z,51.20
2018-09-22T19:26:36.412Z,54.30
2018-09-22T19:29:15.052Z,55.06
2018-09-22T19:32:22.913Z,53.29
2018-09-22T19:34:59.859Z,54.39
2018-09-22T19:37:40.717Z,54.85
2018-09-22T19:40:19.664Z,52.77
2018-09-22T19:43:06.396Z,54.90
2018-09-22T19:45:43.453Z,55.39
2018-09-22T19:48:34.508Z,56.24
2018-09-22T19:51:09.095Z,56.11
2018-09-22T19:53:41.260Z,56.74
2018-09-22T19:56:11.491Z,57.82
2018-09-22T19:58:42.068Z,56.84
2018-09-22T20:01:12.737Z,54.20
2018-09-22T20:03:42.964Z,52.03
2018-09-22T20:06:13.178Z,52.05
2018-09-22T20:08:43.669Z,52.78
2018-09-22T20:11:14.160Z,53.03
2018-09-22T20:13:44.916Z,53.33
2018-09-22T20:16:15.403Z,52.65
2018-09-22T20:18:45.611Z,52.17
2018-09-22T20:21:16.123Z,52.25
2018-09-22T20:23:46.454Z,51.21
2018-09-22T20:26:17.232Z,50.22
2018-09-22T20:28:47.832Z,51.41
2018-09-22T20:31:18.294Z,50.44
2018-09-22T20:33:48.771Z,51.80
2018-09-22T20:36:19.436Z,52.88
2018-09-22T20:38:50.089Z,54.67
2018-09-22T20:41:20.840Z,55.72
2018-09-22T20:43:51.147Z,56.43
2018-09-22T20:46:21.874Z,57.29
2018-09-22T20:48:52.388Z,57.16
2018-09-22T20:51:22.656Z,57.50
2018-09-22T20:53:53.135Z,57.51
2018-09-22T20:56:23.347Z,59.13
2018-09-22T20:58:53.684Z,57.90
2018-09-22T21:01:24.412Z,57.32
2018-09-22T21:03:55.023Z,58.50
2018-09-22T21:06:25.905Z,58.04
2018-09-22T21:08:56.167Z,58.53
2018-09-22T21:11:26.814Z,59.51
2018-09-22T21:13:57.015Z,59.87
2018-09-22T21:16:27.499Z,59.88
2018-09-22T21:18:57.721Z,59.91
2018-09-22T21:21:28.056Z,59.60
2018-09-22T21:23:58.659Z,58.04
2018-09-22T21:26:29.693Z,56.79
2018-09-22T21:29:00.515Z,55.37
2018-09-22T21:31:31.402Z,55.72
2018-09-22T21:34:01.833Z,55.41
2018-09-22T21:36:33.000Z,54.11
2018-09-22T21:39:04.830Z,53.99
2018-09-22T21:41:35.311Z,55.51
2018-09-22T21:44:05.848Z,53.32
2018-09-22T21:46:36.356Z,51.92
2018-09-22T21:49:07.303Z,52.97
2018-09-22T21:51:38.046Z,53.07
2018-09-22T21:54:08.704Z,53.57
2018-09-22T21:56:39.445Z,53.41
2018-09-22T21:59:10.219Z,55.08
2018-09-22T22:01:41.647Z,54.95
2018-09-22T22:04:12.289Z,54.82
2018-09-22T22:06:42.547Z,54.55
2018-09-22T22:09:14.120Z,54.02
2018-09-22T22:11:44.441Z,53.51
2018-09-22T22:14:14.908Z,52.64
2018-09-22T22:16:45.188Z,51.68
2018-09-22T22:19:15.708Z,50.33
2018-09-22T22:21:46.604Z,50.33
2018-09-22T22:24:17.119Z,51.34
2018-09-22T22:26:48.792Z,51.50
2018-09-22T22:29:19.057Z,53.33
2018-09-22T22:31:49.272Z,54.50
2018-09-22T22:34:21.508Z,55.64
2018-09-22T22:36:52.020Z,56.50
2018-09-22T22:39:22.539Z,56.16
2018-09-22T22:41:53.076Z,56.13
2018-09-22T22:44:23.632Z,54.79
2018-09-22T22:46:54.291Z,53.81
2018-09-22T22:49:25.148Z,53.55
2018-09-22T22:51:55.675Z,53.72
2018-09-22T22:54:25.940Z,54.26
2018-09-22T22:56:56.412Z,54.28
2018-09-22T22:59:26.949Z,52.77
2018-09-22T23:01:57.436Z,53.64
2018-09-22T23:04:28.033Z,56.81
2018-09-22T23:06:58.512Z,57.79
2018-09-22T23:09:29.693Z,58.70
2018-09-22T23:12:01.733Z,59.28
2018-09-22T23:14:31.936Z,59.19
2018-09-22T23:17:02.515Z,59.69
2018-09-22T23:19:32.780Z,59.06
2018-09-22T23:22:03.521Z,56.14
2018-09-22T23:24:34.055Z,54.01
2018-09-22T23:27:04.620Z,53.24
2018-09-22T23:29:35.156Z,53.39
2018-09-22T23:32:06.913Z,54.60
2018-09-22T23:34:37.411Z,54.13
2018-09-22T23:37:07.907Z,53.82
2018-09-22T23:39:38.420Z,53.79
2018-09-22T23:42:08.901Z,53.39
2018-09-22T23:44:39.420Z,53.52
2018-09-22T23:47:10.252Z,53.40
2018-09-22T23:49:40.460Z,53.09
2018-09-22T23:52:11.335Z,52.69
2018-09-22T23:54:41.827Z,52.37
2018-09-22T23:57:12.355Z,52.27
2018-09-22T23:59:42.888Z,51.39
